Time;durP1;ratioP1;P1;durP2;ratioP2;P2;SDS_P1;SDS_P2;PMS_P1;PMS_P2;Temp;Humidity;BMP_temperature;BMP_pressure;BME280_temperature;BME280_humidity;BME280_pressure;Samples;Min_cycle;Max_cycle;Signal;HPM_P1;HPM_P2
2022/07/15 00:04:13;;;;;;;0.00;0.00;;;;;;;12.50;100.00;102193.97;10411198;28;20041;-79
2022/07/15 00:09:14;;;;;;;2.00;0.75;;;;;;;12.43;100.00;102197.13;10409520;28;20455;-78
2022/07/15 00:14:16;;;;;;;0.52;0.10;;;;;;;12.28;100.00;102200.88;10409744;28;20459;-79
2022/07/15 00:19:19;;;;;;;0.00;0.00;;;;;;;12.23;100.00;102199.81;10410167;28;20045;-79
2022/07/15 00:24:21;;;;;;;0.00;0.00;;;;;;;12.11;100.00;102196.72;10409266;28;20046;-79
2022/07/15 00:29:23;;;;;;;0.43;0.25;;;;;;;12.03;100.00;102197.31;10408946;28;20049;-79
2022/07/15 00:34:25;;;;;;;0.20;0.20;;;;;;;12.01;100.00;102198.97;10408344;28;20080;-79
2022/07/15 00:39:27;;;;;;;0.10;0.10;;;;;;;11.89;100.00;102213.91;10408650;28;20145;-79
2022/07/15 00:44:31;;;;;;;0.00;0.00;;;;;;;11.92;100.00;102211.47;10409025;28;20038;-79
2022/07/15 00:49:33;;;;;;;0.00;0.00;;;;;;;11.77;100.00;102205.66;10409165;28;20393;-79
2022/07/15 00:54:35;;;;;;;0.00;0.00;;;;;;;11.68;100.00;102203.56;10409934;28;20046;-79
2022/07/15 00:59:38;;;;;;;0.28;0.10;;;;;;;11.59;100.00;102204.03;10409118;28;20076;-79
2022/07/15 01:04:40;;;;;;;0.38;0.10;;;;;;;11.51;100.00;102205.41;10407841;28;20099;-79
2022/07/15 01:09:42;;;;;;;0.00;0.00;;;;;;;11.39;100.00;102209.25;10407799;28;20084;-79
2022/07/15 01:14:44;;;;;;;0.08;0.08;;;;;;;11.16;100.00;102202.19;10408770;28;20063;-79
2022/07/15 01:19:48;;;;;;;0.05;0.00;;;;;;;11.08;100.00;102210.47;10405778;28;20468;-79
2022/07/15 01:24:52;;;;;;;0.00;0.00;;;;;;;11.06;100.00;102213.78;10391607;28;20143;-79
2022/07/15 01:30:00;;;;;;;0.08;0.08;;;;;;;11.00;100.00;102213.53;10407996;28;20042;-79
2022/07/15 01:35:04;;;;;;;0.00;0.00;;;;;;;10.90;100.00;102218.25;10407124;28;20053;-79
2022/07/15 01:40:12;;;;;;;0.90;0.25;;;;;;;10.68;100.00;102223.22;10406815;28;20046;-79
2022/07/15 01:45:17;;;;;;;0.65;0.40;;;;;;;10.85;100.00;102221.44;10393699;28;20061;-79
2022/07/15 01:50:21;;;;;;;0.00;0.00;;;;;;;10.71;100.00;102224.25;10412531;28;20037;-78
2022/07/15 01:55:28;;;;;;;0.73;0.13;;;;;;;10.63;100.00;102231.66;10414812;28;20049;-79
2022/07/15 02:00:32;;;;;;;0.13;0.13;;;;;;;10.74;100.00;102228.66;10398089;28;20395;-79
2022/07/15 02:05:35;;;;;;;0.00;0.00;;;;;;;10.44;100.00;102229.00;10414142;28;20042;-78
2022/07/15 02:10:40;;;;;;;0.00;0.00;;;;;;;10.45;100.00;102225.59;10397428;28;20041;-79
2022/07/15 02:15:50;;;;;;;0.00;0.00;;;;;;;10.18;100.00;102222.53;10414676;28;20175;-78
2022/07/15 02:20:52;;;;;;;1.20;0.55;;;;;;;10.11;100.00;102224.81;10412973;28;20041;-78
2022/07/15 02:25:53;;;;;;;0.30;0.25;;;;;;;9.96;100.00;102231.78;10414050;28;20052;-79
2022/07/15 02:31:01;;;;;;;0.98;0.55;;;;;;;10.27;100.00;102236.78;10397748;28;20041;-79
2022/07/15 02:36:08;;;;;;;0.13;0.13;;;;;;;10.47;100.00;102235.16;10397492;28;20077;-78
2022/07/15 02:41:11;;;;;;;0.25;0.25;;;;;;;10.46;100.00;102230.81;10396526;28;20045;-79
2022/07/15 02:46:16;;;;;;;0.00;0.00;;;;;;;10.53;100.00;102226.84;10413180;28;20515;-79
2022/07/15 02:51:19;;;;;;;0.20;0.00;;;;;;;10.30;100.00;102241.19;10411854;28;20509;-79
2022/07/15 02:56:21;;;;;;;0.15;0.15;;;;;;;10.73;100.00;102248.41;10412777;28;20103;-79
2022/07/15 03:01:23;;;;;;;0.00;0.00;;;;;;;10.98;100.00;102254.72;10411481;28;20095;-79
2022/07/15 03:07:00;;;;;;;0.00;0.00;;;;;;;11.18;100.00;102252.16;10395211;28;20041;-78
2022/07/15 03:12:02;;;;;;;0.00;0.00;;;;;;;11.36;100.00;102257.25;10417411;28;20048;-79
2022/07/15 03:17:03;;;;;;;0.00;0.00;;;;;;;11.46;100.00;102263.69;10428802;28;20061;-79
2022/07/15 03:22:06;;;;;;;0.20;0.00;;;;;;;11.61;100.00;102268.66;10411223;28;20045;-79
2022/07/15 03:27:10;;;;;;;0.10;0.10;;;;;;;11.80;100.00;102271.22;10412448;28;20045;-78
2022/07/15 03:32:15;;;;;;;0.00;0.00;;;;;;;11.91;100.00;102269.09;10423525;28;20044;-79
2022/07/15 03:37:30;;;;;;;0.00;0.00;;;;;;;12.00;100.00;102274.69;10413356;28;20051;-78
2022/07/15 03:42:32;;;;;;;0.00;0.00;;;;;;;12.13;100.00;102277.75;10398411;28;20051;-78
2022/07/15 03:47:33;;;;;;;0.38;0.25;;;;;;;12.19;100.00;102275.44;10410828;28;20140;-78
2022/07/15 03:52:41;;;;;;;0.32;0.30;;;;;;;12.29;100.00;102282.75;10410853;28;20041;-79
2022/07/15 03:57:43;;;;;;;0.10;0.00;;;;;;;12.47;100.00;102276.56;10410140;28;20049;-78
2022/07/15 04:02:45;;;;;;;0.10;0.10;;;;;;;12.57;100.00;102281.28;10409212;28;20041;-78
2022/07/15 04:07:49;;;;;;;0.05;0.05;;;;;;;12.58;100.00;102288.22;10409648;28;20152;-78
2022/07/15 04:12:50;;;;;;;0.08;0.08;;;;;;;12.82;100.00;102295.19;10409627;28;20049;-78
2022/07/15 04:17:52;;;;;;;0.10;0.10;;;;;;;12.74;100.00;102297.44;10393163;28;20045;-78
2022/07/15 04:22:56;;;;;;;0.00;0.00;;;;;;;12.72;100.00;102308.56;10409287;28;20038;-78
2022/07/15 04:28:00;;;;;;;0.15;0.03;;;;;;;12.90;100.00;102314.47;10408756;28;20045;-79
2022/07/15 04:33:05;;;;;;;0.10;0.10;;;;;;;13.08;100.00;102305.63;10408542;28;20045;-78
2022/07/15 04:38:09;;;;;;;0.40;0.10;;;;;;;13.29;100.00;102314.19;10408304;28;20051;-79
2022/07/15 04:43:12;;;;;;;0.03;0.03;;;;;;;13.44;100.00;102308.75;10409302;28;20091;-78
2022/07/15 04:53:36;;;;;;;;;;;;;;;13.66;100.00;102313.84;10411669;28;20045;-79
2022/07/15 04:58:39;;;;;;;0.20;0.20;;;;;;;13.75;100.00;102319.31;10426692;28;19921;-79
2022/07/15 05:03:42;;;;;;;0.03;0.03;;;;;;;13.78;100.00;102330.69;10409665;28;20378;-79
2022/07/15 05:08:44;;;;;;;0.20;0.10;;;;;;;13.94;100.00;102332.13;10408605;28;20068;-79
2022/07/15 05:13:46;;;;;;;0.20;0.00;;;;;;;13.94;100.00;102332.13;10409436;28;20049;-79
2022/07/15 05:18:49;;;;;;;0.15;0.15;;;;;;;13.91;100.00;102331.13;10408836;28;20053;-79
2022/07/15 05:23:53;;;;;;;0.28;0.15;;;;;;;14.26;100.00;102321.94;10424237;28;20038;-79
2022/07/15 05:29:15;;;;;;;0.20;0.00;;;;;;;14.43;100.00;102327.72;10442394;28;20072;-79
2022/07/15 05:34:17;;;;;;;1.92;0.80;;;;;;;14.50;100.00;102317.53;10449837;28;20056;-79
2022/07/15 05:39:19;;;;;;;0.47;0.30;;;;;;;14.64;100.00;102320.53;10442873;28;20049;-79
2022/07/15 05:44:20;;;;;;;0.20;0.20;;;;;;;14.57;100.00;102325.53;10445179;28;20045;-79
2022/07/15 05:49:24;;;;;;;0.45;0.20;;;;;;;14.67;100.00;102320.69;10426595;28;20571;-79
2022/07/15 05:54:28;;;;;;;14.38;0.22;;;;;;;15.12;100.00;102327.25;10444745;28;20053;-79
2022/07/15 05:59:31;;;;;;;0.20;0.20;;;;;;;14.90;100.00;102314.50;10424814;28;20080;-79
2022/07/15 06:04:35;;;;;;;0.00;0.00;;;;;;;15.05;100.00;102313.22;10408559;28;20504;-79
2022/07/15 06:09:37;;;;;;;0.00;0.00;;;;;;;15.21;100.00;102310.25;10386252;28;20046;-78
2022/07/15 06:14:39;;;;;;;0.52;0.28;;;;;;;15.26;100.00;102301.69;10367239;28;20460;-79
2022/07/15 06:19:48;;;;;;;0.52;0.30;;;;;;;15.57;100.00;102302.56;10381250;28;20049;-79
2022/07/15 06:24:50;;;;;;;0.32;0.20;;;;;;;15.63;100.00;102292.34;10387834;28;20124;-78
2022/07/15 06:29:54;;;;;;;0.70;0.15;;;;;;;15.97;100.00;102296.75;10388929;28;20049;-79
2022/07/15 06:34:57;;;;;;;0.10;0.10;;;;;;;16.12;100.00;102301.44;10382731;28;20176;-79
2022/07/15 06:39:59;;;;;;;0.10;0.05;;;;;;;16.04;100.00;102292.59;10386583;28;20416;-79
2022/07/15 06:45:01;;;;;;;0.52;0.40;;;;;;;16.19;100.00;102299.88;10380540;28;20046;-79
2022/07/15 06:50:04;;;;;;;0.00;0.00;;;;;;;16.11;100.00;102293.63;10383242;28;20046;-79
2022/07/15 06:55:06;;;;;;;0.00;0.00;;;;;;;16.59;100.00;102297.38;10386447;28;20054;-79
2022/07/15 07:00:10;;;;;;;1.60;0.70;;;;;;;16.66;100.00;102288.84;10381896;28;20057;-79
2022/07/15 07:05:14;;;;;;;0.60;0.08;;;;;;;17.16;100.00;102284.78;10395253;28;20413;-79
2022/07/15 07:10:16;;;;;;;1.75;0.32;;;;;;;17.76;94.19;102271.13;10382995;28;20044;-79
2022/07/15 07:15:26;;;;;;;0.00;0.00;;;;;;;17.98;90.56;102271.56;10394110;28;20049;-79
2022/07/15 07:20:28;;;;;;;0.00;0.00;;;;;;;17.73;99.13;102280.63;10402598;28;20128;-79
2022/07/15 07:25:30;;;;;;;0.10;0.10;;;;;;;18.51;90.18;102272.38;10393756;28;20053;-79
2022/07/15 07:30:32;;;;;;;0.28;0.20;;;;;;;18.64;87.98;102278.66;10411567;28;20048;-79
2022/07/15 07:35:34;;;;;;;0.00;0.00;;;;;;;19.09;77.43;102261.03;10411168;28;20049;-79
2022/07/15 07:40:36;;;;;;;0.30;0.10;;;;;;;19.48;73.22;102275.38;10415155;28;20045;-79
2022/07/15 07:45:38;;;;;;;0.38;0.20;;;;;;;19.68;72.70;102272.09;10394657;28;20038;-79
2022/07/15 07:50:40;;;;;;;0.00;0.00;;;;;;;19.52;67.95;102282.41;10391691;28;20052;-79
2022/07/15 07:55:45;;;;;;;0.00;0.00;;;;;;;19.68;64.34;102282.56;10405097;28;20049;-79
2022/07/15 08:00:47;;;;;;;0.00;0.00;;;;;;;19.88;63.55;102280.19;10406132;28;20175;-79
2022/07/15 08:05:49;;;;;;;0.00;0.00;;;;;;;20.37;66.23;102284.91;10402081;28;20056;-79
2022/07/15 08:10:56;;;;;;;0.00;0.00;;;;;;;20.37;64.35;102287.53;10409727;28;20469;-79
2022/07/15 08:15:58;;;;;;;0.00;0.00;;;;;;;20.70;65.25;102283.38;10394284;28;20037;-79
2022/07/15 08:21:09;;;;;;;0.10;0.00;;;;;;;20.09;62.35;102292.53;10398091;28;20495;-79
2022/07/15 08:26:13;;;;;;;0.10;0.00;;;;;;;21.20;62.39;102279.28;10400578;28;20073;-79
2022/07/15 08:31:16;;;;;;;0.10;0.00;;;;;;;19.46;62.13;102292.81;10397300;28;20037;-79
2022/07/15 08:36:18;;;;;;;0.00;0.00;;;;;;;21.40;60.53;102292.44;10409326;28;20045;-80
2022/07/15 08:41:21;;;;;;;0.00;0.00;;;;;;;20.16;55.09;102296.97;10430057;28;20042;-80
2022/07/15 08:46:26;;;;;;;0.00;0.00;;;;;;;19.41;61.87;102294.47;10433687;28;20072;-79
2022/07/15 08:51:30;;;;;;;0.00;0.00;;;;;;;21.70;61.41;102281.16;10431336;28;20155;-79
2022/07/15 08:56:33;;;;;;;0.00;0.00;;;;;;;21.47;51.97;102286.34;10426956;28;20049;-80
2022/07/15 09:01:42;;;;;;;0.08;0.03;;;;;;;21.27;47.62;102290.63;10428222;28;20042;-79
2022/07/15 09:06:46;;;;;;;0.00;0.00;;;;;;;21.69;49.61;102279.41;10433225;28;20099;-79
2022/07/15 09:12:11;;;;;;;0.00;0.00;;;;;;;22.08;61.89;102276.81;10431871;28;20080;-79
2022/07/15 09:17:16;;;;;;;0.80;0.40;;;;;;;21.58;49.67;102280.28;10424155;28;20506;-79
2022/07/15 09:22:19;;;;;;;0.15;0.15;;;;;;;21.50;47.49;102278.47;10407395;28;20042;-80
2022/07/15 09:27:28;;;;;;;0.30;0.30;;;;;;;22.75;54.18;102264.47;10413546;28;20049;-80
2022/07/15 09:37:59;;;;;;;0.00;0.00;;;;;;;22.54;50.67;102264.53;10400877;28;20374;-79
2022/07/15 09:43:06;;;;;;;1.45;0.32;;;;;;;22.43;47.85;102257.56;10409235;28;20041;-79
2022/07/15 09:48:12;;;;;;;0.00;0.00;;;;;;;22.74;51.80;102260.13;10391629;28;20480;-80
2022/07/15 09:53:14;;;;;;;0.00;0.00;;;;;;;23.17;50.28;102258.16;10398918;28;20037;-80
2022/07/15 09:58:18;;;;;;;0.00;0.00;;;;;;;21.88;51.30;102266.34;10397044;28;20052;-79
2022/07/15 10:03:22;;;;;;;0.00;0.00;;;;;;;21.58;50.21;102275.03;10399743;28;20048;-79
2022/07/15 10:08:25;;;;;;;0.00;0.00;;;;;;;20.96;52.49;102280.06;10399264;28;20412;-79
2022/07/15 10:13:50;;;;;;;0.17;0.00;;;;;;;22.02;54.21;102276.81;10418316;28;20112;-78
2022/07/15 10:19:24;;;;;;;0.08;0.03;;;;;;;21.19;50.83;102278.38;10390577;28;20413;-79
2022/07/15 10:24:32;;;;;;;0.00;0.00;;;;;;;20.81;52.23;102266.03;10391580;28;20125;-79
2022/07/15 10:29:34;;;;;;;0.00;0.00;;;;;;;20.86;55.56;102259.06;10419080;28;20049;-79
2022/07/15 10:34:40;;;;;;;0.00;0.00;;;;;;;21.46;51.66;102255.75;10400457;28;20408;-79
2022/07/15 10:39:46;;;;;;;0.00;0.00;;;;;;;21.14;53.07;102253.91;10409944;28;20535;-79
2022/07/15 10:44:49;;;;;;;0.00;0.00;;;;;;;22.93;60.08;102239.00;10410554;28;20461;-79
2022/07/15 10:49:51;;;;;;;0.00;0.00;;;;;;;22.38;44.73;102237.41;10412648;28;20068;-79
2022/07/15 10:54:57;;;;;;;0.00;0.00;;;;;;;21.05;52.05;102230.31;10412751;28;20584;-79
2022/07/15 10:59:59;;;;;;;0.00;0.00;;;;;;;22.11;51.37;102226.94;10412354;28;20630;-78
2022/07/15 11:05:18;;;;;;;0.00;0.00;;;;;;;21.60;48.58;102226.09;10412327;28;20042;-79
2022/07/15 11:10:21;;;;;;;0.00;0.00;;;;;;;21.09;48.53;102218.97;10396976;28;20064;-78
2022/07/15 11:15:23;;;;;;;0.00;0.00;;;;;;;20.71;50.97;102224.91;10413600;28;20103;-78
2022/07/15 11:20:32;;;;;;;0.00;0.00;;;;;;;20.49;51.19;102209.09;10412789;28;20056;-79
2022/07/15 11:25:38;;;;;;;;;;;;;;;21.06;52.48;102214.59;10413291;28;20041;-79
2022/07/15 11:30:47;;;;;;;0.00;0.00;;;;;;;21.03;57.66;102213.72;10414069;28;19925;-78
2022/07/15 11:35:52;;;;;;;0.00;0.00;;;;;;;22.63;48.95;102204.09;10410931;28;20033;-78
2022/07/15 11:46:29;;;;;;;0.00;0.00;;;;;;;21.01;51.54;102220.69;10389287;28;20072;-79
2022/07/15 11:51:31;;;;;;;0.00;0.00;;;;;;;20.47;52.82;102202.09;10405957;28;20049;-78
2022/07/15 11:56:32;;;;;;;0.00;0.00;;;;;;;20.35;56.70;102198.53;10383577;28;20132;-79
2022/07/15 12:01:34;;;;;;;1.08;0.47;;;;;;;20.40;58.13;102188.09;10405057;28;20148;-79
2022/07/15 12:06:36;;;;;;;0.13;0.00;;;;;;;21.49;58.18;102190.19;10374993;28;20056;-79
2022/07/15 12:11:38;;;;;;;0.00;0.00;;;;;;;21.89;52.39;102180.63;10391430;28;20480;-78
2022/07/15 12:16:41;;;;;;;0.00;0.00;;;;;;;21.15;50.52;102195.41;10383499;28;20096;-78
2022/07/15 12:21:47;;;;;;;0.40;0.10;;;;;;;21.89;58.74;102186.75;10390837;28;20477;-78
2022/07/15 12:26:48;;;;;;;0.00;0.00;;;;;;;22.05;51.33;102182.34;10407251;28;20050;-78
2022/07/15 12:31:54;;;;;;;0.00;0.00;;;;;;;21.86;50.82;102187.59;10408729;28;20052;-78
2022/07/15 12:36:57;;;;;;;0.00;0.00;;;;;;;21.34;56.34;102184.94;10408239;28;20489;-78
2022/07/15 12:42:01;;;;;;;0.22;0.13;;;;;;;21.15;53.06;102195.41;10399951;28;20052;-78
2022/07/15 12:47:06;;;;;;;0.00;0.00;;;;;;;20.65;51.22;102190.84;10403427;28;20128;-79
2022/07/15 12:52:31;;;;;;;0.10;0.10;;;;;;;21.13;51.90;102188.41;10397833;28;20046;-77
2022/07/15 12:57:35;;;;;;;0.00;0.00;;;;;;;21.18;52.03;102192.81;10410595;28;20041;-79
2022/07/15 13:02:56;;;;;;;0.00;0.00;;;;;;;20.99;53.95;102199.75;10407221;28;20042;-78
2022/07/15 13:07:58;;;;;;;0.00;0.00;;;;;;;20.88;54.25;102190.94;10403480;28;20069;-78
2022/07/15 13:13:01;;;;;;;0.00;0.00;;;;;;;20.71;54.93;102190.88;10409250;28;20472;-78
2022/07/15 13:18:03;;;;;;;0.00;0.00;;;;;;;21.09;56.11;102190.16;10412518;28;20049;-78
2022/07/15 13:23:06;;;;;;;0.00;0.00;;;;;;;21.00;53.61;102197.97;10404318;28;20127;-79
2022/07/15 13:28:09;;;;;;;0.13;0.10;;;;;;;20.92;54.97;102190.97;10404154;28;20049;-79
2022/07/15 13:33:12;;;;;;;0.03;0.03;;;;;;;21.18;53.71;102186.66;10409434;28;20040;-79
2022/07/15 13:38:14;;;;;;;0.20;0.10;;;;;;;20.83;56.58;102185.69;10407367;28;20104;-80
2022/07/15 13:43:42;;;;;;;0.00;0.00;;;;;;;21.13;58.47;102175.31;10403452;28;20144;-79
2022/07/15 13:48:44;;;;;;;0.15;0.15;;;;;;;20.95;57.43;102178.75;10398953;28;20070;-79
2022/07/15 13:53:45;;;;;;;0.00;0.00;;;;;;;21.62;54.66;102178.00;10409819;28;20119;-79
2022/07/15 13:58:48;;;;;;;0.00;0.00;;;;;;;21.60;58.44;102165.78;10407957;28;20069;-79
2022/07/15 14:03:50;;;;;;;0.00;0.00;;;;;;;21.54;59.82;102175.38;10412791;28;20128;-78
2022/07/15 14:08:52;;;;;;;0.00;0.00;;;;;;;21.36;58.09;102167.47;10412340;28;20449;-78
2022/07/15 14:13:53;;;;;;;0.00;0.00;;;;;;;21.04;63.82;102173.53;10426414;28;20149;-79
2022/07/15 14:18:55;;;;;;;0.05;0.03;;;;;;;20.57;56.87;102167.22;10408266;28;20132;-79
2022/07/15 14:23:57;;;;;;;0.00;0.00;;;;;;;20.61;58.63;102164.63;10409081;28;20091;-79
2022/07/15 14:29:03;;;;;;;0.00;0.00;;;;;;;21.01;57.87;102160.44;10423373;28;20072;-80
2022/07/15 14:34:05;;;;;;;0.00;0.00;;;;;;;22.16;52.59;102154.31;10420343;28;20044;-79
2022/07/15 14:39:09;;;;;;;0.00;0.00;;;;;;;21.49;60.32;102150.00;10413474;28;20399;-79
2022/07/15 14:44:11;;;;;;;0.00;0.00;;;;;;;21.36;61.16;102154.38;10412334;28;20084;-79
2022/07/15 14:49:12;;;;;;;0.00;0.00;;;;;;;21.19;54.03;102147.34;10409038;28;20045;-79
2022/07/15 14:54:14;;;;;;;0.00;0.00;;;;;;;21.09;57.29;102148.22;10409765;28;20037;-79
2022/07/15 14:59:16;;;;;;;0.32;0.10;;;;;;;21.16;62.80;102147.38;10409730;28;20082;-79
2022/07/15 15:04:18;;;;;;;0.20;0.10;;;;;;;21.07;61.05;102147.34;10407972;28;20056;-79
2022/07/15 15:09:20;;;;;;;0.08;0.08;;;;;;;22.06;67.21;102131.63;10411499;28;20049;-79
2022/07/15 15:14:24;;;;;;;0.00;0.00;;;;;;;22.27;58.81;102133.28;10406375;28;20088;-78
2022/07/15 15:19:25;;;;;;;0.30;0.10;;;;;;;22.16;54.70;102128.06;10407207;28;20127;-78
2022/07/15 15:24:27;;;;;;;0.00;0.00;;;;;;;21.33;56.57;102133.41;10407255;28;20132;-78
2022/07/15 15:29:29;;;;;;;0.10;0.10;;;;;;;21.48;54.56;102122.91;10403974;28;20053;-79
2022/07/15 15:34:31;;;;;;;0.20;0.10;;;;;;;21.66;60.82;102113.31;10408123;28;20524;-79
2022/07/15 15:39:33;;;;;;;0.00;0.00;;;;;;;21.78;61.04;102105.41;10409123;28;20061;-78
2022/07/15 15:44:36;;;;;;;0.00;0.00;;;;;;;21.65;55.40;102108.94;10407260;28;20060;-78
2022/07/15 15:49:38;;;;;;;0.30;0.03;;;;;;;21.90;59.86;102103.66;10403694;28;20050;-79
2022/07/15 15:54:40;;;;;;;0.00;0.00;;;;;;;21.65;59.42;102106.31;10410323;28;20492;-78
2022/07/15 15:59:41;;;;;;;0.00;0.00;;;;;;;21.61;61.12;102101.97;10405813;28;20038;-78
2022/07/15 16:04:43;;;;;;;0.00;0.00;;;;;;;22.01;58.12;102096.63;10407043;28;20041;-77
2022/07/15 16:10:06;;;;;;;0.00;0.00;;;;;;;21.81;59.61;102084.44;10405504;28;20041;-77
2022/07/15 16:15:09;;;;;;;0.00;0.00;;;;;;;22.25;58.97;102086.94;10420294;28;20037;-78
2022/07/15 16:20:11;;;;;;;0.10;0.10;;;;;;;21.70;57.33;102081.84;10405141;28;20041;-76
2022/07/15 16:25:13;;;;;;;0.00;0.00;;;;;;;21.80;62.17;102074.81;10408467;28;20385;-77
2022/07/15 16:30:15;;;;;;;0.00;0.00;;;;;;;21.93;57.72;102066.94;10395047;28;20077;-77
2022/07/15 16:35:29;;;;;;;1.85;0.28;;;;;;;22.11;58.08;102061.63;10395479;28;20409;-77
2022/07/15 16:40:32;;;;;;;0.00;0.00;;;;;;;21.94;53.95;102064.31;10393605;28;20053;-78
2022/07/15 16:45:34;;;;;;;0.77;0.10;;;;;;;21.62;52.96;102069.63;10399823;28;20045;-78
2022/07/15 16:50:38;;;;;;;0.30;0.20;;;;;;;21.42;52.07;102075.72;10412548;28;20550;-77
2022/07/15 16:55:40;;;;;;;0.00;0.00;;;;;;;21.33;56.53;102081.00;10385365;28;20124;-76
2022/07/15 17:00:41;;;;;;;0.00;0.00;;;;;;;21.99;56.94;102059.91;10396741;28;20041;-78
2022/07/15 17:05:43;;;;;;;0.00;0.00;;;;;;;22.12;54.31;102063.38;10398871;28;20062;-77
2022/07/15 17:10:45;;;;;;;0.00;0.00;;;;;;;21.86;52.24;102053.81;10393149;28;20103;-78
2022/07/15 17:15:47;;;;;;;0.20;0.10;;;;;;;21.72;56.59;102052.97;10399510;28;20052;-78
2022/07/15 17:20:50;;;;;;;0.00;0.00;;;;;;;21.85;52.48;102053.81;10410202;28;20115;-78
2022/07/15 17:25:52;;;;;;;0.08;0.00;;;;;;;21.25;54.62;102052.16;10407592;28;20033;-77
2022/07/15 17:30:54;;;;;;;0.00;0.00;;;;;;;20.96;58.92;102050.41;10424076;28;20049;-77
2022/07/15 17:35:57;;;;;;;0.00;0.00;;;;;;;21.42;57.58;102048.66;10429488;28;20121;-77
2022/07/15 17:41:02;;;;;;;0.00;0.00;;;;;;;21.10;58.17;102047.78;10406617;28;20049;-77
2022/07/15 17:46:04;;;;;;;0.05;0.05;;;;;;;20.70;63.00;102052.94;10400813;28;20042;-77
2022/07/15 17:51:08;;;;;;;0.00;0.00;;;;;;;20.49;61.09;102052.03;10414883;28;20053;-77
2022/07/15 17:56:20;;;;;;;0.80;0.00;;;;;;;20.58;61.40;102053.78;10408017;28;20108;-77
2022/07/15 18:01:24;;;;;;;0.00;0.00;;;;;;;20.62;63.24;102060.78;10421040;28;20060;-77
2022/07/15 18:06:27;;;;;;;0.10;0.10;;;;;;;20.76;63.03;102055.59;10405846;28;20425;-77
2022/07/15 18:11:28;;;;;;;0.00;0.00;;;;;;;20.64;61.20;102050.31;10412622;28;20444;-77
2022/07/15 18:16:31;;;;;;;0.05;0.05;;;;;;;20.45;65.62;102047.63;10442992;28;20498;-77
2022/07/15 18:21:33;;;;;;;0.30;0.10;;;;;;;20.61;68.83;102049.44;10422157;28;20132;-77
2022/07/15 18:26:35;;;;;;;0.30;0.00;;;;;;;20.46;68.21;102044.16;10408873;28;20041;-77
2022/07/15 18:31:37;;;;;;;0.03;0.03;;;;;;;20.39;71.74;102043.28;10404509;28;20041;-77
2022/07/15 18:36:39;;;;;;;0.10;0.00;;;;;;;20.23;72.46;102041.47;10405069;28;20524;-77
2022/07/15 18:41:44;;;;;;;0.00;0.00;;;;;;;20.20;71.02;102044.97;10397450;28;20072;-76
2022/07/15 18:46:46;;;;;;;0.00;0.00;;;;;;;20.16;73.14;102037.94;10384938;28;20377;-77
2022/07/15 18:51:48;;;;;;;0.10;0.10;;;;;;;20.01;74.33;102033.53;10401260;28;20043;-77
2022/07/15 18:56:49;;;;;;;0.10;0.10;;;;;;;20.04;71.54;102030.06;10396887;28;20038;-76
2022/07/15 19:01:52;;;;;;;0.10;0.10;;;;;;;20.04;72.22;102024.81;10400975;28;20042;-77
2022/07/15 19:06:54;;;;;;;0.25;0.10;;;;;;;19.93;72.70;102032.63;10409421;28;20074;-77
2022/07/15 19:11:57;;;;;;;0.00;0.00;;;;;;;19.74;77.46;102036.84;10395676;28;20037;-76
2022/07/15 19:16:59;;;;;;;0.00;0.00;;;;;;;19.65;75.23;102028.06;10389500;28;20049;-77
2022/07/15 19:22:01;;;;;;;0.00;0.00;;;;;;;19.36;75.26;102027.00;10403353;28;20501;-77
2022/07/15 19:27:03;;;;;;;0.10;0.10;;;;;;;19.17;79.14;102026.88;10395941;28;20043;-77
2022/07/15 19:32:05;;;;;;;1.45;0.55;;;;;;;18.90;77.04;102035.31;10407265;28;20401;-76
2022/07/15 19:37:07;;;;;;;0.00;0.00;;;;;;;18.92;77.64;102024.06;10401410;28;20152;-77
2022/07/15 19:42:09;;;;;;;0.00;0.00;;;;;;;18.62;80.21;102035.91;10391213;28;20396;-76
2022/07/15 19:47:11;;;;;;;0.05;0.00;;;;;;;18.37;82.94;102034.78;10390400;28;20117;-76
2022/07/15 19:52:15;;;;;;;0.20;0.15;;;;;;;18.26;81.38;102036.34;10391394;28;20038;-77
2022/07/15 19:57:17;;;;;;;0.10;0.10;;;;;;;18.26;80.44;102042.47;10398863;28;20069;-77
2022/07/15 20:02:19;;;;;;;1.08;0.40;;;;;;;18.11;81.36;102052.72;10386018;28;20045;-77
2022/07/15 20:07:20;;;;;;;0.00;0.00;;;;;;;18.21;80.18;102057.16;10397635;28;20077;-77
2022/07/15 20:12:24;;;;;;;0.05;0.00;;;;;;;18.05;82.74;102066.53;10392548;28;20559;-78
2022/07/15 20:17:26;;;;;;;0.32;0.15;;;;;;;18.01;80.95;102067.34;10391525;28;20483;-78
2022/07/15 20:22:28;;;;;;;0.38;0.30;;;;;;;18.14;79.40;102058.84;10403165;28;20073;-77
2022/07/15 20:27:30;;;;;;;0.17;0.10;;;;;;;18.19;80.03;102056.28;10395335;28;20037;-77
2022/07/15 20:32:32;;;;;;;0.00;0.00;;;;;;;18.12;79.82;102057.06;10399738;28;20128;-77
2022/07/15 20:37:34;;;;;;;0.40;0.13;;;;;;;18.12;80.98;102057.06;10394466;28;20066;-77
2022/07/15 20:42:36;;;;;;;0.05;0.05;;;;;;;18.10;80.16;102053.56;10399629;28;20509;-77
2022/07/15 20:47:38;;;;;;;0.28;0.20;;;;;;;18.14;79.84;102047.50;10391012;28;20046;-77
2022/07/15 20:52:40;;;;;;;0.52;0.25;;;;;;;18.02;82.10;102054.34;10401637;28;20054;-76
2022/07/15 20:57:42;;;;;;;0.75;0.75;;;;;;;17.99;81.62;102054.28;10407764;28;20144;-78
2022/07/15 21:02:46;;;;;;;0.00;0.00;;;;;;;17.89;83.93;102055.00;10409151;28;20493;-77
2022/07/15 21:07:48;;;;;;;0.00;0.00;;;;;;;17.99;82.20;102056.03;10409497;28;20575;-76
2022/07/15 21:12:49;;;;;;;0.25;0.10;;;;;;;17.89;83.94;102055.00;10410144;28;20572;-76
2022/07/15 21:17:51;;;;;;;0.45;0.20;;;;;;;17.88;83.15;102051.50;10411184;28;20045;-77
2022/07/15 21:22:53;;;;;;;0.00;0.00;;;;;;;17.82;83.63;102040.13;10410600;28;20128;-77
2022/07/15 21:27:55;;;;;;;0.08;0.00;;;;;;;17.53;90.29;102038.84;10415475;28;20069;-77
2022/07/15 21:32:57;;;;;;;0.00;0.00;;;;;;;17.72;88.21;102033.91;10408335;28;20034;-76
2022/07/15 21:37:59;;;;;;;0.00;0.00;;;;;;;17.63;86.58;102023.34;10407664;28;20057;-76
2022/07/15 21:43:01;;;;;;;0.00;0.00;;;;;;;17.38;88.33;102029.06;10409255;28;20052;-77
2022/07/15 21:48:03;;;;;;;0.17;0.00;;;;;;;17.47;86.71;102027.44;10407821;28;20049;-76
2022/07/15 21:53:05;;;;;;;0.03;0.03;;;;;;;17.38;90.15;102044.69;10402536;28;20535;-76
2022/07/15 21:58:07;;;;;;;0.32;0.22;;;;;;;17.31;88.90;102041.97;10400404;28;20034;-76
2022/07/15 22:03:11;;;;;;;0.00;0.00;;;;;;;17.26;86.49;102041.88;10401575;28;20095;-77
2022/07/15 22:08:13;;;;;;;0.00;0.00;;;;;;;17.25;85.20;102037.50;10416425;28;20041;-78
2022/07/15 22:13:15;;;;;;;6.40;0.85;;;;;;;17.31;84.16;102026.31;10410115;28;20034;-76
2022/07/15 22:18:17;;;;;;;2.25;0.20;;;;;;;17.05;90.54;102029.41;10406916;28;20041;-76
2022/07/15 22:23:19;;;;;;;0.00;0.00;;;;;;;16.98;88.75;102033.59;10405133;28;20053;-77
2022/07/15 22:28:23;;;;;;;0.20;0.20;;;;;;;16.94;88.37;102026.59;10374028;28;20049;-76
2022/07/15 22:33:26;;;;;;;0.00;0.00;;;;;;;16.83;93.59;102028.09;10386092;28;20133;-76
2022/07/15 22:38:28;;;;;;;0.00;0.00;;;;;;;16.55;93.85;102038.00;10414988;28;20069;-76
2022/07/15 22:43:30;;;;;;;0.00;0.00;;;;;;;16.32;99.31;102031.47;10415301;28;20471;-76
2022/07/15 22:48:32;;;;;;;0.00;0.00;;;;;;;16.02;100.00;102031.75;10414594;28;20465;-76
2022/07/15 22:53:34;;;;;;;0.00;0.00;;;;;;;15.76;100.00;102034.59;10415004;28;20544;-77
2022/07/15 22:58:35;;;;;;;0.00;0.00;;;;;;;15.67;100.00;102035.28;10413118;28;20283;-76
2022/07/15 23:03:43;;;;;;;0.00;0.00;;;;;;;15.50;100.00;102034.88;10414273;28;20047;-76
2022/07/15 23:08:50;;;;;;;0.00;0.00;;;;;;;15.40;100.00;102040.69;10412679;28;20071;-76
2022/07/15 23:13:57;;;;;;;0.00;0.00;;;;;;;15.10;100.00;102041.69;10411882;28;20044;-76
2022/07/15 23:19:11;;;;;;;0.00;0.00;;;;;;;14.90;100.00;102047.25;10413397;28;20146;-76
2022/07/15 23:24:13;;;;;;;0.00;0.00;;;;;;;14.99;100.00;102037.94;10412424;28;20041;-76
2022/07/15 23:29:14;;;;;;;0.22;0.03;;;;;;;15.11;100.00;102038.25;10412869;28;20311;-76